sensor_id;sensor_type;location;lat;lon;timestamp;temperature;humidity
21085;DHT22;34247;50.064;19.970;2022-12-07T00:00:24;21.40;28.80
21085;DHT22;34247;50.064;19.970;2022-12-07T00:01:40;21.30;28.70
21085;DHT22;34247;50.064;19.970;2022-12-07T00:02:44;21.40;28.70
21085;DHT22;34247;50.064;19.970;2022-12-07T00:03:52;21.40;28.70
21085;DHT22;34247;50.064;19.970;2022-12-07T00:04:56;21.50;28.60
21085;DHT22;34247;50.064;19.970;2022-12-07T00:06:04;21.50;28.60
21085;DHT22;34247;50.064;19.970;2022-12-07T00:07:09;21.50;28.60
21085;DHT22;34247;50.064;19.970;2022-12-07T00:08:16;21.50;28.50
21085;DHT22;34247;50.064;19.970;2022-12-07T00:09:20;21.60;28.30
21085;DHT22;34247;50.064;19.970;2022-12-07T00:10:23;21.60;28.30
21085;DHT22;34247;50.064;19.970;2022-12-07T00:11:27;21.60;28.30
21085;DHT22;34247;50.064;19.970;2022-12-07T00:12:30;21.60;28.20
21085;DHT22;34247;50.064;19.970;2022-12-07T00:13:35;21.60;28.20
21085;DHT22;34247;50.064;19.970;2022-12-07T00:14:39;21.60;28.30
21085;DHT22;34247;50.064;19.970;2022-12-07T00:15:43;21.50;28.30
21085;DHT22;34247;50.064;19.970;2022-12-07T00:16:49;21.50;28.40
21085;DHT22;34247;50.064;19.970;2022-12-07T00:17:54;21.50;28.50
21085;DHT22;34247;50.064;19.970;2022-12-07T00:19:01;21.40;29.00
21085;DHT22;34247;50.064;19.970;2022-12-07T00:20:09;21.50;28.60
21085;DHT22;34247;50.064;19.970;2022-12-07T00:21:35;21.50;28.50
21085;DHT22;34247;50.064;19.970;2022-12-07T00:22:45;21.50;28.30
21085;DHT22;34247;50.064;19.970;2022-12-07T00:23:54;21.50;28.30
21085;DHT22;34247;50.064;19.970;2022-12-07T00:24:59;21.50;28.30
21085;DHT22;34247;50.064;19.970;2022-12-07T00:26:15;21.40;28.40
21085;DHT22;34247;50.064;19.970;2022-12-07T00:27:25;21.40;28.50
21085;DHT22;34247;50.064;19.970;2022-12-07T00:28:30;21.40;28.50
21085;DHT22;34247;50.064;19.970;2022-12-07T00:29:34;21.40;28.60
21085;DHT22;34247;50.064;19.970;2022-12-07T00:30:40;21.40;28.60
21085;DHT22;34247;50.064;19.970;2022-12-07T00:31:47;21.40;28.60
21085;DHT22;34247;50.064;19.970;2022-12-07T00:32:51;21.40;28.50
21085;DHT22;34247;50.064;19.970;2022-12-07T00:33:55;21.40;28.50
21085;DHT22;34247;50.064;19.970;2022-12-07T00:35:15;21.50;28.60
21085;DHT22;34247;50.064;19.970;2022-12-07T00:36:24;21.50;28.40
21085;DHT22;34247;50.064;19.970;2022-12-07T00:37:29;21.50;28.30
21085;DHT22;34247;50.064;19.970;2022-12-07T00:38:34;21.60;28.30
21085;DHT22;34247;50.064;19.970;2022-12-07T00:39:40;21.70;28.20
21085;DHT22;34247;50.064;19.970;2022-12-07T00:40:57;21.70;28.10
21085;DHT22;34247;50.064;19.970;2022-12-07T00:42:09;21.70;28.10
21085;DHT22;34247;50.064;19.970;2022-12-07T00:43:13;21.70;28.10
21085;DHT22;34247;50.064;19.970;2022-12-07T00:44:16;21.60;28.10
21085;DHT22;34247;50.064;19.970;2022-12-07T00:45:20;21.60;28.20
21085;DHT22;34247;50.064;19.970;2022-12-07T00:46:25;21.50;28.20
21085;DHT22;34247;50.064;19.970;2022-12-07T00:47:29;21.50;28.20
21085;DHT22;34247;50.064;19.970;2022-12-07T00:48:33;21.50;28.30
21085;DHT22;34247;50.064;19.970;2022-12-07T00:49:38;21.50;28.30
21085;DHT22;34247;50.064;19.970;2022-12-07T00:50:42;21.50;28.40
21085;DHT22;34247;50.064;19.970;2022-12-07T00:51:48;21.60;28.20
21085;DHT22;34247;50.064;19.970;2022-12-07T00:52:52;21.60;28.20
21085;DHT22;34247;50.064;19.970;2022-12-07T00:53:56;21.60;28.20
21085;DHT22;34247;50.064;19.970;2022-12-07T00:55:02;21.60;28.20
21085;DHT22;34247;50.064;19.970;2022-12-07T00:56:13;21.60;28.20
21085;DHT22;34247;50.064;19.970;2022-12-07T00:57:18;21.50;28.20
21085;DHT22;34247;50.064;19.970;2022-12-07T00:58:23;21.50;28.20
21085;DHT22;34247;50.064;19.970;2022-12-07T00:59:27;21.50;28.30
21085;DHT22;34247;50.064;19.970;2022-12-07T01:00:30;21.50;28.40
21085;DHT22;34247;50.064;19.970;2022-12-07T01:01:35;21.40;28.40
21085;DHT22;34247;50.064;19.970;2022-12-07T01:02:40;21.40;28.50
21085;DHT22;34247;50.064;19.970;2022-12-07T01:03:44;21.40;28.50
21085;DHT22;34247;50.064;19.970;2022-12-07T01:04:49;21.40;28.50
21085;DHT22;34247;50.064;19.970;2022-12-07T01:05:54;21.50;28.50
21085;DHT22;34247;50.064;19.970;2022-12-07T01:06:59;21.40;28.40
21085;DHT22;34247;50.064;19.970;2022-12-07T01:08:03;21.40;28.50
21085;DHT22;34247;50.064;19.970;2022-12-07T01:09:08;21.40;28.50
21085;DHT22;34247;50.064;19.970;2022-12-07T01:10:13;21.50;28.90
21085;DHT22;34247;50.064;19.970;2022-12-07T01:11:23;21.50;28.40
21085;DHT22;34247;50.064;19.970;2022-12-07T01:12:28;21.50;28.40
21085;DHT22;34247;50.064;19.970;2022-12-07T01:13:33;21.50;28.40
21085;DHT22;34247;50.064;19.970;2022-12-07T01:14:39;21.50;28.50
21085;DHT22;34247;50.064;19.970;2022-12-07T01:15:45;21.40;28.40
21085;DHT22;34247;50.064;19.970;2022-12-07T01:16:49;21.50;28.50
21085;DHT22;34247;50.064;19.970;2022-12-07T01:17:53;21.50;28.50
21085;DHT22;34247;50.064;19.970;2022-12-07T01:18:58;21.50;28.50
21085;DHT22;34247;50.064;19.970;2022-12-07T01:20:04;21.40;28.50
21085;DHT22;34247;50.064;19.970;2022-12-07T01:21:46;21.50;28.60
21085;DHT22;34247;50.064;19.970;2022-12-07T01:22:42;21.50;28.60
21085;DHT22;34247;50.064;19.970;2022-12-07T01:23:46;21.50;28.60
21085;DHT22;34247;50.064;19.970;2022-12-07T01:24:50;21.60;28.60
21085;DHT22;34247;50.064;19.970;2022-12-07T01:25:59;21.60;28.50
21085;DHT22;34247;50.064;19.970;2022-12-07T01:27:04;21.60;28.60
21085;DHT22;34247;50.064;19.970;2022-12-07T01:28:16;21.60;28.60
21085;DHT22;34247;50.064;19.970;2022-12-07T01:29:20;21.50;28.50
21085;DHT22;34247;50.064;19.970;2022-12-07T01:30:26;21.50;28.70
21085;DHT22;34247;50.064;19.970;2022-12-07T01:31:34;21.50;28.80
21085;DHT22;34247;50.064;19.970;2022-12-07T01:32:38;21.50;28.80
21085;DHT22;34247;50.064;19.970;2022-12-07T01:33:46;21.40;28.70
21085;DHT22;34247;50.064;19.970;2022-12-07T01:34:53;21.40;28.70
21085;DHT22;34247;50.064;19.970;2022-12-07T01:36:14;21.40;28.80
21085;DHT22;34247;50.064;19.970;2022-12-07T01:37:23;21.80;28.60
21085;DHT22;34247;50.064;19.970;2022-12-07T01:38:30;21.70;28.50
21085;DHT22;34247;50.064;19.970;2022-12-07T01:39:35;21.60;28.50
21085;DHT22;34247;50.064;19.970;2022-12-07T01:40:44;21.50;28.60
21085;DHT22;34247;50.064;19.970;2022-12-07T01:41:56;21.50;28.70
21085;DHT22;34247;50.064;19.970;2022-12-07T01:43:01;21.50;28.80
21085;DHT22;34247;50.064;19.970;2022-12-07T01:44:25;21.40;28.70
21085;DHT22;34247;50.064;19.970;2022-12-07T01:45:42;21.30;28.90
21085;DHT22;34247;50.064;19.970;2022-12-07T01:46:48;21.40;29.00
21085;DHT22;34247;50.064;19.970;2022-12-07T01:48:23;21.40;29.10
21085;DHT22;34247;50.064;19.970;2022-12-07T01:49:42;21.40;29.10
21085;DHT22;34247;50.064;19.970;2022-12-07T01:51:05;21.40;29.00
21085;DHT22;34247;50.064;19.970;2022-12-07T01:52:17;21.40;28.90
21085;DHT22;34247;50.064;19.970;2022-12-07T01:53:35;21.40;29.00
21085;DHT22;34247;50.064;19.970;2022-12-07T01:54:44;21.40;29.10
21085;DHT22;34247;50.064;19.970;2022-12-07T01:55:52;21.40;29.00
21085;DHT22;34247;50.064;19.970;2022-12-07T01:56:58;21.30;28.90
21085;DHT22;34247;50.064;19.970;2022-12-07T01:58:02;21.40;29.00
21085;DHT22;34247;50.064;19.970;2022-12-07T01:59:10;21.30;28.90
21085;DHT22;34247;50.064;19.970;2022-12-07T02:00:14;21.40;28.90
21085;DHT22;34247;50.064;19.970;2022-12-07T02:01:18;21.40;28.90
21085;DHT22;34247;50.064;19.970;2022-12-07T02:02:31;21.30;28.90
21085;DHT22;34247;50.064;19.970;2022-12-07T02:03:44;21.40;28.90
21085;DHT22;34247;50.064;19.970;2022-12-07T02:04:49;21.40;28.90
21085;DHT22;34247;50.064;19.970;2022-12-07T02:05:56;21.40;29.00
21085;DHT22;34247;50.064;19.970;2022-12-07T02:07:03;21.40;28.90
21085;DHT22;34247;50.064;19.970;2022-12-07T02:08:09;21.30;29.00
21085;DHT22;34247;50.064;19.970;2022-12-07T02:09:15;21.30;29.00
21085;DHT22;34247;50.064;19.970;2022-12-07T02:10:25;21.30;29.00
21085;DHT22;34247;50.064;19.970;2022-12-07T02:11:31;21.30;29.00
21085;DHT22;34247;50.064;19.970;2022-12-07T02:12:34;21.40;29.00
21085;DHT22;34247;50.064;19.970;2022-12-07T02:13:40;21.40;28.80
21085;DHT22;34247;50.064;19.970;2022-12-07T02:14:46;21.50;28.80
21085;DHT22;34247;50.064;19.970;2022-12-07T02:16:42;21.50;28.70
21085;DHT22;34247;50.064;19.970;2022-12-07T02:18:25;21.50;28.70
21085;DHT22;34247;50.064;19.970;2022-12-07T02:20:00;21.50;28.60
21085;DHT22;34247;50.064;19.970;2022-12-07T02:21:25;21.40;28.70
21085;DHT22;34247;50.064;19.970;2022-12-07T02:22:42;21.40;28.60
21085;DHT22;34247;50.064;19.970;2022-12-07T02:24:57;21.50;28.60
21085;DHT22;34247;50.064;19.970;2022-12-07T02:30:10;21.30;28.70
21085;DHT22;34247;50.064;19.970;2022-12-07T02:31:20;21.30;28.70
21085;DHT22;34247;50.064;19.970;2022-12-07T02:32:43;21.30;28.70
21085;DHT22;34247;50.064;19.970;2022-12-07T02:34:08;21.30;28.80
21085;DHT22;34247;50.064;19.970;2022-12-07T02:36:52;21.30;28.90
21085;DHT22;34247;50.064;19.970;2022-12-07T02:38:14;21.30;28.70
21085;DHT22;34247;50.064;19.970;2022-12-07T02:39:41;21.30;28.80
21085;DHT22;34247;50.064;19.970;2022-12-07T02:41:15;21.30;28.80
21085;DHT22;34247;50.064;19.970;2022-12-07T02:42:32;21.30;28.60
21085;DHT22;34247;50.064;19.970;2022-12-07T02:43:45;21.30;28.80
21085;DHT22;34247;50.064;19.970;2022-12-07T02:44:54;21.20;28.80
21085;DHT22;34247;50.064;19.970;2022-12-07T02:46:03;21.30;28.70
21085;DHT22;34247;50.064;19.970;2022-12-07T02:47:16;21.20;28.60
21085;DHT22;34247;50.064;19.970;2022-12-07T02:48:23;21.20;28.60
21085;DHT22;34247;50.064;19.970;2022-12-07T02:49:29;21.40;28.60
21085;DHT22;34247;50.064;19.970;2022-12-07T02:50:34;21.40;28.40
21085;DHT22;34247;50.064;19.970;2022-12-07T02:51:43;21.30;28.40
21085;DHT22;34247;50.064;19.970;2022-12-07T02:52:49;21.30;28.40
21085;DHT22;34247;50.064;19.970;2022-12-07T02:53:53;21.30;28.40
21085;DHT22;34247;50.064;19.970;2022-12-07T02:54:57;21.20;28.40
21085;DHT22;34247;50.064;19.970;2022-12-07T02:56:11;21.20;28.40
21085;DHT22;34247;50.064;19.970;2022-12-07T03:01:20;21.10;28.60
21085;DHT22;34247;50.064;19.970;2022-12-07T03:03:00;21.10;28.70
21085;DHT22;34247;50.064;19.970;2022-12-07T03:05:59;21.10;28.80
21085;DHT22;34247;50.064;19.970;2022-12-07T03:11:16;21.00;28.70
21085;DHT22;34247;50.064;19.970;2022-12-07T03:14:23;21.10;28.70
21085;DHT22;34247;50.064;19.970;2022-12-07T03:16:44;21.00;28.70
21085;DHT22;34247;50.064;19.970;2022-12-07T03:18:09;21.00;28.70
21085;DHT22;34247;50.064;19.970;2022-12-07T03:19:18;21.00;28.80
21085;DHT22;34247;50.064;19.970;2022-12-07T03:20:26;21.00;28.90
21085;DHT22;34247;50.064;19.970;2022-12-07T03:21:44;21.00;28.90
21085;DHT22;34247;50.064;19.970;2022-12-07T03:23:00;21.00;28.90
21085;DHT22;34247;50.064;19.970;2022-12-07T03:24:15;21.00;29.00
21085;DHT22;34247;50.064;19.970;2022-12-07T03:25:23;21.00;29.00
21085;DHT22;34247;50.064;19.970;2022-12-07T03:26:43;21.00;29.00
21085;DHT22;34247;50.064;19.970;2022-12-07T03:28:04;21.00;28.90
21085;DHT22;34247;50.064;19.970;2022-12-07T03:29:34;21.00;29.00
21085;DHT22;34247;50.064;19.970;2022-12-07T03:30:54;21.00;28.90
21085;DHT22;34247;50.064;19.970;2022-12-07T03:32:37;21.00;29.00
21085;DHT22;34247;50.064;19.970;2022-12-07T03:34:22;21.00;29.00
21085;DHT22;34247;50.064;19.970;2022-12-07T03:35:42;21.10;28.90
21085;DHT22;34247;50.064;19.970;2022-12-07T03:37:12;21.00;29.00
21085;DHT22;34247;50.064;19.970;2022-12-07T03:38:53;21.00;28.90
21085;DHT22;34247;50.064;19.970;2022-12-07T03:42:04;21.00;29.00
21085;DHT22;34247;50.064;19.970;2022-12-07T03:43:13;21.00;29.00
21085;DHT22;34247;50.064;19.970;2022-12-07T03:44:17;21.00;29.00
21085;DHT22;34247;50.064;19.970;2022-12-07T03:45:30;21.00;29.00
21085;DHT22;34247;50.064;19.970;2022-12-07T03:46:55;21.00;29.00
21085;DHT22;34247;50.064;19.970;2022-12-07T03:51:34;21.10;28.90
21085;DHT22;34247;50.064;19.970;2022-12-07T03:53:15;21.20;28.90
21085;DHT22;34247;50.064;19.970;2022-12-07T03:56:44;21.10;28.90
21085;DHT22;34247;50.064;19.970;2022-12-07T03:57:51;21.10;29.00
21085;DHT22;34247;50.064;19.970;2022-12-07T03:58:59;21.00;29.00
21085;DHT22;34247;50.064;19.970;2022-12-07T04:00:04;21.00;29.10
21085;DHT22;34247;50.064;19.970;2022-12-07T04:01:15;21.10;29.10
21085;DHT22;34247;50.064;19.970;2022-12-07T04:02:22;21.10;29.10
21085;DHT22;34247;50.064;19.970;2022-12-07T04:03:32;21.10;29.10
21085;DHT22;34247;50.064;19.970;2022-12-07T04:04:39;21.10;29.10
21085;DHT22;34247;50.064;19.970;2022-12-07T04:05:44;21.10;29.10
21085;DHT22;34247;50.064;19.970;2022-12-07T04:06:47;21.10;29.00
21085;DHT22;34247;50.064;19.970;2022-12-07T04:07:51;21.10;29.10
21085;DHT22;34247;50.064;19.970;2022-12-07T04:08:57;21.10;29.10
21085;DHT22;34247;50.064;19.970;2022-12-07T04:10:01;21.10;29.10
21085;DHT22;34247;50.064;19.970;2022-12-07T04:11:07;21.10;29.10
21085;DHT22;34247;50.064;19.970;2022-12-07T04:12:10;21.10;29.10
21085;DHT22;34247;50.064;19.970;2022-12-07T04:13:16;21.10;29.20
21085;DHT22;34247;50.064;19.970;2022-12-07T04:14:19;21.10;29.20
21085;DHT22;34247;50.064;19.970;2022-12-07T04:15:23;21.10;29.30
21085;DHT22;34247;50.064;19.970;2022-12-07T04:16:27;21.10;29.20
21085;DHT22;34247;50.064;19.970;2022-12-07T04:17:30;21.10;29.20
21085;DHT22;34247;50.064;19.970;2022-12-07T04:18:34;21.10;29.10
21085;DHT22;34247;50.064;19.970;2022-12-07T04:19:38;21.10;29.10
21085;DHT22;34247;50.064;19.970;2022-12-07T04:20:41;21.10;29.20
21085;DHT22;34247;50.064;19.970;2022-12-07T04:21:45;21.10;29.20
21085;DHT22;34247;50.064;19.970;2022-12-07T04:22:49;21.20;29.30
21085;DHT22;34247;50.064;19.970;2022-12-07T04:23:53;21.20;29.30
21085;DHT22;34247;50.064;19.970;2022-12-07T04:24:56;21.10;29.20
21085;DHT22;34247;50.064;19.970;2022-12-07T04:26:00;21.20;29.30
21085;DHT22;34247;50.064;19.970;2022-12-07T04:27:03;21.20;29.20
21085;DHT22;34247;50.064;19.970;2022-12-07T04:28:07;21.20;29.30
21085;DHT22;34247;50.064;19.970;2022-12-07T04:29:11;21.20;29.20
21085;DHT22;34247;50.064;19.970;2022-12-07T04:30:15;21.20;29.20
21085;DHT22;34247;50.064;19.970;2022-12-07T04:31:19;21.20;29.10
21085;DHT22;34247;50.064;19.970;2022-12-07T04:32:24;21.20;29.20
21085;DHT22;34247;50.064;19.970;2022-12-07T04:33:28;21.20;29.30
21085;DHT22;34247;50.064;19.970;2022-12-07T04:34:31;21.20;29.20
21085;DHT22;34247;50.064;19.970;2022-12-07T04:35:38;21.20;29.20
21085;DHT22;34247;50.064;19.970;2022-12-07T04:36:47;21.20;29.20
21085;DHT22;34247;50.064;19.970;2022-12-07T04:37:54;21.30;29.20
21085;DHT22;34247;50.064;19.970;2022-12-07T04:38:57;21.30;29.20
21085;DHT22;34247;50.064;19.970;2022-12-07T04:40:02;21.30;29.20
21085;DHT22;34247;50.064;19.970;2022-12-07T04:41:09;21.30;29.10
21085;DHT22;34247;50.064;19.970;2022-12-07T04:42:13;21.30;29.20
21085;DHT22;34247;50.064;19.970;2022-12-07T04:43:18;21.30;29.20
21085;DHT22;34247;50.064;19.970;2022-12-07T04:44:23;21.20;29.20
21085;DHT22;34247;50.064;19.970;2022-12-07T04:45:28;21.20;29.20
21085;DHT22;34247;50.064;19.970;2022-12-07T04:46:31;21.20;29.20
21085;DHT22;34247;50.064;19.970;2022-12-07T04:47:36;21.30;29.20
21085;DHT22;34247;50.064;19.970;2022-12-07T04:48:53;21.20;29.30
21085;DHT22;34247;50.064;19.970;2022-12-07T04:50:03;21.20;29.30
21085;DHT22;34247;50.064;19.970;2022-12-07T04:51:08;21.30;29.30
21085;DHT22;34247;50.064;19.970;2022-12-07T04:52:12;21.20;29.30
21085;DHT22;34247;50.064;19.970;2022-12-07T04:53:16;21.30;29.50
21085;DHT22;34247;50.064;19.970;2022-12-07T04:54:20;21.30;29.30
21085;DHT22;34247;50.064;19.970;2022-12-07T04:55:24;21.20;29.30
21085;DHT22;34247;50.064;19.970;2022-12-07T04:56:27;21.30;29.30
21085;DHT22;34247;50.064;19.970;2022-12-07T04:57:31;21.20;29.30
21085;DHT22;34247;50.064;19.970;2022-12-07T04:58:35;21.30;29.30
21085;DHT22;34247;50.064;19.970;2022-12-07T04:59:46;21.30;29.30
21085;DHT22;34247;50.064;19.970;2022-12-07T05:00:50;21.20;29.30
21085;DHT22;34247;50.064;19.970;2022-12-07T05:01:57;21.30;29.30
21085;DHT22;34247;50.064;19.970;2022-12-07T05:03:01;21.30;29.30
21085;DHT22;34247;50.064;19.970;2022-12-07T05:04:05;21.30;29.30
21085;DHT22;34247;50.064;19.970;2022-12-07T05:05:11;21.30;29.20
21085;DHT22;34247;50.064;19.970;2022-12-07T05:06:15;21.40;29.20
21085;DHT22;34247;50.064;19.970;2022-12-07T05:07:19;21.40;29.20
21085;DHT22;34247;50.064;19.970;2022-12-07T05:08:22;21.40;29.30
21085;DHT22;34247;50.064;19.970;2022-12-07T05:09:27;21.30;29.30
21085;DHT22;34247;50.064;19.970;2022-12-07T05:10:32;21.30;29.30
21085;DHT22;34247;50.064;19.970;2022-12-07T05:11:51;21.40;29.30
21085;DHT22;34247;50.064;19.970;2022-12-07T05:12:56;21.40;29.10
21085;DHT22;34247;50.064;19.970;2022-12-07T05:14:01;21.40;29.10
21085;DHT22;34247;50.064;19.970;2022-12-07T05:15:07;21.40;29.10
21085;DHT22;34247;50.064;19.970;2022-12-07T05:16:11;21.40;29.10
21085;DHT22;34247;50.064;19.970;2022-12-07T05:17:16;21.40;29.10
21085;DHT22;34247;50.064;19.970;2022-12-07T05:18:20;21.30;29.10
21085;DHT22;34247;50.064;19.970;2022-12-07T05:19:23;21.30;29.20
21085;DHT22;34247;50.064;19.970;2022-12-07T05:20:27;21.30;29.30
21085;DHT22;34247;50.064;19.970;2022-12-07T05:21:31;21.40;29.20
21085;DHT22;34247;50.064;19.970;2022-12-07T05:22:35;21.40;29.10
21085;DHT22;34247;50.064;19.970;2022-12-07T05:23:39;21.50;29.20
21085;DHT22;34247;50.064;19.970;2022-12-07T05:24:43;21.40;29.10
21085;DHT22;34247;50.064;19.970;2022-12-07T05:25:46;21.50;29.10
21085;DHT22;34247;50.064;19.970;2022-12-07T05:26:51;21.40;29.10
21085;DHT22;34247;50.064;19.970;2022-12-07T05:27:59;21.40;29.10
21085;DHT22;34247;50.064;19.970;2022-12-07T05:29:15;21.40;29.10
21085;DHT22;34247;50.064;19.970;2022-12-07T05:30:20;21.30;29.20
21085;DHT22;34247;50.064;19.970;2022-12-07T05:31:27;21.40;29.30
21085;DHT22;34247;50.064;19.970;2022-12-07T05:32:32;21.40;29.30
21085;DHT22;34247;50.064;19.970;2022-12-07T05:33:36;21.40;29.30
21085;DHT22;34247;50.064;19.970;2022-12-07T05:34:58;21.40;29.30
21085;DHT22;34247;50.064;19.970;2022-12-07T05:36:03;21.30;29.30
21085;DHT22;34247;50.064;19.970;2022-12-07T05:37:16;21.30;29.40
21085;DHT22;34247;50.064;19.970;2022-12-07T05:38:21;21.30;29.40
21085;DHT22;34247;50.064;19.970;2022-12-07T05:39:28;21.30;29.40
21085;DHT22;34247;50.064;19.970;2022-12-07T05:40:32;21.30;29.40
21085;DHT22;34247;50.064;19.970;2022-12-07T05:41:35;21.30;29.40
21085;DHT22;34247;50.064;19.970;2022-12-07T05:42:58;21.30;29.40
21085;DHT22;34247;50.064;19.970;2022-12-07T05:44:10;21.40;29.40
21085;DHT22;34247;50.064;19.970;2022-12-07T05:45:13;21.40;29.30
21085;DHT22;34247;50.064;19.970;2022-12-07T05:46:18;21.30;29.30
21085;DHT22;34247;50.064;19.970;2022-12-07T05:47:25;21.40;29.40
21085;DHT22;34247;50.064;19.970;2022-12-07T05:48:32;21.40;29.40
21085;DHT22;34247;50.064;19.970;2022-12-07T05:49:39;21.40;29.30
21085;DHT22;34247;50.064;19.970;2022-12-07T05:50:43;21.40;29.30
21085;DHT22;34247;50.064;19.970;2022-12-07T05:51:50;21.30;29.30
21085;DHT22;34247;50.064;19.970;2022-12-07T05:52:54;21.40;29.30
21085;DHT22;34247;50.064;19.970;2022-12-07T05:53:57;21.40;29.30
21085;DHT22;34247;50.064;19.970;2022-12-07T05:55:01;21.30;29.30
21085;DHT22;34247;50.064;19.970;2022-12-07T05:56:12;21.30;29.40
21085;DHT22;34247;50.064;19.970;2022-12-07T05:57:15;21.30;29.40
21085;DHT22;34247;50.064;19.970;2022-12-07T05:58:19;21.30;29.40
21085;DHT22;34247;50.064;19.970;2022-12-07T05:59:44;21.30;29.50
21085;DHT22;34247;50.064;19.970;2022-12-07T06:00:48;21.30;29.50
21085;DHT22;34247;50.064;19.970;2022-12-07T06:02:01;21.30;29.50
21085;DHT22;34247;50.064;19.970;2022-12-07T06:03:13;21.30;29.50
21085;DHT22;34247;50.064;19.970;2022-12-07T06:04:17;21.30;29.50
21085;DHT22;34247;50.064;19.970;2022-12-07T06:05:21;21.40;29.50
21085;DHT22;34247;50.064;19.970;2022-12-07T06:06:24;21.30;29.80
21085;DHT22;34247;50.064;19.970;2022-12-07T06:07:28;21.40;29.40
21085;DHT22;34247;50.064;19.970;2022-12-07T06:08:31;21.40;29.30
21085;DHT22;34247;50.064;19.970;2022-12-07T06:09:35;21.40;29.10
21085;DHT22;34247;50.064;19.970;2022-12-07T06:10:40;21.40;29.10
21085;DHT22;34247;50.064;19.970;2022-12-07T06:11:44;21.40;29.10
21085;DHT22;34247;50.064;19.970;2022-12-07T06:13:13;21.30;29.10
21085;DHT22;34247;50.064;19.970;2022-12-07T06:14:16;21.40;29.30
21085;DHT22;34247;50.064;19.970;2022-12-07T06:15:23;21.40;29.20
21085;DHT22;34247;50.064;19.970;2022-12-07T06:16:27;21.40;29.20
21085;DHT22;34247;50.064;19.970;2022-12-07T06:17:31;21.40;29.10
21085;DHT22;34247;50.064;19.970;2022-12-07T06:18:34;21.50;29.00
21085;DHT22;34247;50.064;19.970;2022-12-07T06:19:39;21.50;29.00
21085;DHT22;34247;50.064;19.970;2022-12-07T06:20:43;21.40;29.00
21085;DHT22;34247;50.064;19.970;2022-12-07T06:21:49;21.40;29.00
21085;DHT22;34247;50.064;19.970;2022-12-07T06:22:53;21.40;29.00
21085;DHT22;34247;50.064;19.970;2022-12-07T06:23:57;21.40;28.90
21085;DHT22;34247;50.064;19.970;2022-12-07T06:25:01;21.40;28.90
21085;DHT22;34247;50.064;19.970;2022-12-07T06:26:10;21.40;28.90
21085;DHT22;34247;50.064;19.970;2022-12-07T06:27:14;21.40;28.80
21085;DHT22;34247;50.064;19.970;2022-12-07T06:28:18;21.40;28.90
21085;DHT22;34247;50.064;19.970;2022-12-07T06:29:23;21.50;28.70
21085;DHT22;34247;50.064;19.970;2022-12-07T06:30:26;21.50;28.70
21085;DHT22;34247;50.064;19.970;2022-12-07T06:31:31;21.50;28.80
21085;DHT22;34247;50.064;19.970;2022-12-07T06:32:40;21.40;28.70
21085;DHT22;34247;50.064;19.970;2022-12-07T06:33:44;21.40;28.80
21085;DHT22;34247;50.064;19.970;2022-12-07T06:34:48;21.30;28.80
21085;DHT22;34247;50.064;19.970;2022-12-07T06:35:52;21.40;28.90
21085;DHT22;34247;50.064;19.970;2022-12-07T06:36:56;21.30;28.80
21085;DHT22;34247;50.064;19.970;2022-12-07T06:38:06;21.40;28.80
21085;DHT22;34247;50.064;19.970;2022-12-07T06:39:15;21.40;28.60
21085;DHT22;34247;50.064;19.970;2022-12-07T06:40:23;21.40;28.70
21085;DHT22;34247;50.064;19.970;2022-12-07T06:41:32;21.50;28.40
21085;DHT22;34247;50.064;19.970;2022-12-07T06:42:35;21.50;28.40
21085;DHT22;34247;50.064;19.970;2022-12-07T06:43:39;21.40;28.40
21085;DHT22;34247;50.064;19.970;2022-12-07T06:44:43;21.40;28.50
21085;DHT22;34247;50.064;19.970;2022-12-07T06:45:47;21.40;28.50
21085;DHT22;34247;50.064;19.970;2022-12-07T06:46:52;21.40;28.50
21085;DHT22;34247;50.064;19.970;2022-12-07T06:48:16;21.50;28.40
21085;DHT22;34247;50.064;19.970;2022-12-07T06:49:22;21.40;28.30
21085;DHT22;34247;50.064;19.970;2022-12-07T06:50:28;21.40;28.40
21085;DHT22;34247;50.064;19.970;2022-12-07T06:51:43;21.40;28.40
21085;DHT22;34247;50.064;19.970;2022-12-07T06:52:47;21.40;28.40
21085;DHT22;34247;50.064;19.970;2022-12-07T06:53:51;21.50;28.20
21085;DHT22;34247;50.064;19.970;2022-12-07T06:54:55;21.40;28.30
21085;DHT22;34247;50.064;19.970;2022-12-07T06:56:04;21.40;28.40
21085;DHT22;34247;50.064;19.970;2022-12-07T06:57:16;21.50;28.30
21085;DHT22;34247;50.064;19.970;2022-12-07T06:58:22;21.60;28.10
21085;DHT22;34247;50.064;19.970;2022-12-07T06:59:26;21.50;28.00
21085;DHT22;34247;50.064;19.970;2022-12-07T07:00:30;21.40;28.10
21085;DHT22;34247;50.064;19.970;2022-12-07T07:01:41;21.30;28.20
21085;DHT22;34247;50.064;19.970;2022-12-07T07:02:44;21.30;28.30
21085;DHT22;34247;50.064;19.970;2022-12-07T07:03:53;21.30;28.40
21085;DHT22;34247;50.064;19.970;2022-12-07T07:04:57;21.20;28.40
21085;DHT22;34247;50.064;19.970;2022-12-07T07:06:01;21.40;28.30
21085;DHT22;34247;50.064;19.970;2022-12-07T07:07:11;21.70;27.80
21085;DHT22;34247;50.064;19.970;2022-12-07T07:08:18;21.50;27.80
21085;DHT22;34247;50.064;19.970;2022-12-07T07:09:25;21.40;28.00
21085;DHT22;34247;50.064;19.970;2022-12-07T07:10:29;21.40;28.20
21085;DHT22;34247;50.064;19.970;2022-12-07T07:11:33;21.40;28.20
21085;DHT22;34247;50.064;19.970;2022-12-07T07:12:37;21.30;28.20
21085;DHT22;34247;50.064;19.970;2022-12-07T07:13:40;21.30;28.30
21085;DHT22;34247;50.064;19.970;2022-12-07T07:14:44;21.30;28.30
21085;DHT22;34247;50.064;19.970;2022-12-07T07:15:48;21.20;28.30
21085;DHT22;34247;50.064;19.970;2022-12-07T07:16:52;21.20;28.40
21085;DHT22;34247;50.064;19.970;2022-12-07T07:17:56;21.30;28.40
21085;DHT22;34247;50.064;19.970;2022-12-07T07:19:07;21.20;28.40
21085;DHT22;34247;50.064;19.970;2022-12-07T07:20:13;21.20;28.50
21085;DHT22;34247;50.064;19.970;2022-12-07T07:21:17;21.20;28.50
21085;DHT22;34247;50.064;19.970;2022-12-07T07:22:20;21.20;28.50
21085;DHT22;34247;50.064;19.970;2022-12-07T07:23:25;21.30;28.30
21085;DHT22;34247;50.064;19.970;2022-12-07T07:24:32;21.30;28.30
21085;DHT22;34247;50.064;19.970;2022-12-07T07:25:48;21.30;28.40
21085;DHT22;34247;50.064;19.970;2022-12-07T07:26:54;21.20;28.40
21085;DHT22;34247;50.064;19.970;2022-12-07T07:27:58;21.20;28.40
21085;DHT22;34247;50.064;19.970;2022-12-07T07:29:02;21.20;28.50
21085;DHT22;34247;50.064;19.970;2022-12-07T07:30:06;21.20;28.60
21085;DHT22;34247;50.064;19.970;2022-12-07T07:31:11;21.20;28.50
21085;DHT22;34247;50.064;19.970;2022-12-07T07:32:15;21.20;28.60